ZSCNJ FKKN-FCOU
Flight info
| Callsign | ZSCNJ |
|---|---|
| Flight time | N/A |
| Altitude | 7000 |
| Route | MOROS |
| Aircraft | PA24/L-SDGRY/S |
Departure
| Time | 2026-04-18 12:40 |
|---|---|
| Airport | N'Gaoundéré Airport (FKKN) |
Arrival
| Time | N/A |
|---|---|
| Airport | Ouesso Airport (FCOU) |
| Time | Latitude | Longitude | Altitude | Speed | Heading |
|---|---|---|---|---|---|
| 2026-04-18 12:35 | 7.35789 | 13.56257 | 3629 ft | 0 kts | 110° |
| 2026-04-18 12:36 | 7.35794 | 13.56265 | 3628 ft | 3 kts | 9° |
| 2026-04-18 12:36 | 7.35830 | 13.56255 | 3628 ft | 5 kts | 343° |
| 2026-04-18 12:36 | 7.35841 | 13.56252 | 3628 ft | 1 kts | 346° |
| 2026-04-18 12:36 | 7.35871 | 13.56254 | 3627 ft | 8 kts | 15° |
| 2026-04-18 12:37 | 7.35943 | 13.56275 | 3626 ft | 13 kts | 18° |
| 2026-04-18 12:37 | 7.36044 | 13.56311 | 3624 ft | 17 kts | 21° |
| 2026-04-18 12:37 | 7.36169 | 13.56348 | 3622 ft | 20 kts | 5° |
| 2026-04-18 12:37 | 7.36304 | 13.56327 | 3621 ft | 20 kts | 334° |
| 2026-04-18 12:38 | 7.36369 | 13.56240 | 3621 ft | 15 kts | 271° |
| 2026-04-18 12:38 | 7.36310 | 13.56168 | 3622 ft | 17 kts | 203° |
| 2026-04-18 12:38 | 7.36032 | 13.56054 | 3626 ft | 66 kts | 201° |
| 2026-04-18 12:38 | 7.35522 | 13.55845 | 3655 ft | 89 kts | 202° |
| 2026-04-18 12:39 | 7.34915 | 13.55598 | 3781 ft | 97 kts | 199° |
| 2026-04-18 12:39 | 7.34275 | 13.55365 | 3937 ft | 99 kts | 199° |
| 2026-04-18 12:39 | 7.33613 | 13.55167 | 4100 ft | 100 kts | 190° |
| 2026-04-18 12:39 | 7.32909 | 13.55133 | 4233 ft | 105 kts | 173° |
| 2026-04-18 12:40 | 7.32197 | 13.55353 | 4371 ft | 108 kts | 147° |
| 2026-04-18 12:40 | 7.31597 | 13.55778 | 4581 ft | 103 kts | 142° |
| 2026-04-18 12:40 | 7.31013 | 13.56212 | 4685 ft | 108 kts | 143° |
| 2026-04-18 12:40 | 7.30417 | 13.56650 | 4873 ft | 104 kts | 143° |
| 2026-04-18 12:41 | 7.29827 | 13.57081 | 4974 ft | 107 kts | 143° |
| 2026-04-18 12:41 | 7.29227 | 13.57517 | 5142 ft | 104 kts | 143° |
| 2026-04-18 12:41 | 7.28628 | 13.57953 | 5258 ft | 107 kts | 143° |
| 2026-04-18 12:41 | 7.28039 | 13.58384 | 5422 ft | 105 kts | 143° |
| 2026-04-18 12:42 | 7.27439 | 13.58824 | 5539 ft | 107 kts | 142° |
| 2026-04-18 12:42 | 7.26839 | 13.59262 | 5692 ft | 106 kts | 143° |
| 2026-04-18 12:42 | 7.26228 | 13.59705 | 5808 ft | 110 kts | 143° |
| 2026-04-18 12:42 | 7.25616 | 13.60151 | 5954 ft | 108 kts | 143° |
| 2026-04-18 12:43 | 7.25004 | 13.60598 | 6066 ft | 111 kts | 143° |
| 2026-04-18 12:43 | 7.24374 | 13.61058 | 6224 ft | 109 kts | 142° |
| 2026-04-18 12:43 | 7.23758 | 13.61512 | 6322 ft | 114 kts | 142° |
| 2026-04-18 12:43 | 7.23114 | 13.61979 | 6465 ft | 112 kts | 143° |
| 2026-04-18 12:44 | 7.22474 | 13.62444 | 6549 ft | 116 kts | 142° |
| 2026-04-18 12:44 | 7.21821 | 13.62937 | 6666 ft | 117 kts | 141° |
| 2026-04-18 12:44 | 7.21172 | 13.63435 | 6787 ft | 117 kts | 142° |
| 2026-04-18 12:44 | 7.20496 | 13.63894 | 6906 ft | 118 kts | 146° |
| 2026-04-18 12:45 | 7.19799 | 13.64313 | 7029 ft | 117 kts | 147° |
| 2026-04-18 12:45 | 7.19085 | 13.64711 | 7138 ft | 118 kts | 148° |
| 2026-04-18 12:45 | 7.18351 | 13.65084 | 7237 ft | 118 kts | 153° |
| 2026-04-18 12:45 | 7.17586 | 13.65387 | 7347 ft | 118 kts | 157° |
| 2026-04-18 12:46 | 7.16819 | 13.65661 | 7440 ft | 119 kts | 157° |
| 2026-04-18 12:46 | 7.16029 | 13.65912 | 7548 ft | 119 kts | 158° |
| 2026-04-18 12:46 | 7.15229 | 13.66146 | 7650 ft | 120 kts | 161° |
| 2026-04-18 12:46 | 7.14423 | 13.66369 | 7757 ft | 120 kts | 160° |
| 2026-04-18 12:47 | 7.13629 | 13.66595 | 7872 ft | 120 kts | 159° |
| 2026-04-18 12:47 | 7.12823 | 13.66826 | 7989 ft | 121 kts | 159° |
| 2026-04-18 12:47 | 7.12025 | 13.67105 | 8100 ft | 121 kts | 155° |
| 2026-04-18 12:47 | 7.11232 | 13.67398 | 8208 ft | 121 kts | 155° |
| 2026-04-18 12:48 | 7.10460 | 13.67709 | 8308 ft | 121 kts | 152° |
| 2026-04-18 12:48 | 7.09696 | 13.68066 | 8416 ft | 120 kts | 149° |
| 2026-04-18 12:48 | 7.08948 | 13.68447 | 8521 ft | 120 kts | 147° |
| 2026-04-18 12:48 | 7.08218 | 13.68834 | 8622 ft | 120 kts | 147° |
| 2026-04-18 12:49 | 7.07480 | 13.69233 | 8722 ft | 120 kts | 146° |
| 2026-04-18 12:49 | 7.06745 | 13.69641 | 8822 ft | 121 kts | 145° |
| 2026-04-18 12:49 | 7.06013 | 13.70058 | 8921 ft | 120 kts | 144° |
| 2026-04-18 12:49 | 7.05270 | 13.70490 | 8860 ft | 134 kts | 145° |
| 2026-04-18 12:50 | 7.04439 | 13.70959 | 8871 ft | 139 kts | 146° |
| 2026-04-18 12:50 | 7.03577 | 13.71442 | 8858 ft | 143 kts | 147° |
| 2026-04-18 12:50 | 7.02705 | 13.71911 | 8854 ft | 145 kts | 148° |
| 2026-04-18 12:50 | 7.01798 | 13.72377 | 8852 ft | 147 kts | 147° |
| 2026-04-18 12:51 | 7.00876 | 13.72851 | 8846 ft | 150 kts | 149° |
| 2026-04-18 12:51 | 6.99936 | 13.73314 | 8843 ft | 151 kts | 150° |
| 2026-04-18 12:51 | 6.98990 | 13.73785 | 8845 ft | 152 kts | 150° |
| 2026-04-18 12:51 | 6.98040 | 13.74233 | 8846 ft | 153 kts | 151° |
| 2026-04-18 12:52 | 6.97067 | 13.74672 | 8844 ft | 153 kts | 153° |
| 2026-04-18 12:52 | 6.96081 | 13.75095 | 8845 ft | 154 kts | 152° |
| 2026-04-18 12:52 | 6.95150 | 13.75525 | 8840 ft | 154 kts | 151° |
| 2026-04-18 12:52 | 6.94185 | 13.75963 | 8843 ft | 153 kts | 152° |
| 2026-04-18 12:53 | 6.93203 | 13.76402 | 8841 ft | 154 kts | 152° |
| 2026-04-18 12:53 | 6.92224 | 13.76827 | 8842 ft | 155 kts | 153° |
| 2026-04-18 12:53 | 6.91235 | 13.77267 | 8842 ft | 155 kts | 152° |
| 2026-04-18 12:53 | 6.90248 | 13.77718 | 8840 ft | 155 kts | 152° |
| 2026-04-18 12:54 | 6.89280 | 13.78168 | 8840 ft | 154 kts | 151° |
| 2026-04-18 12:54 | 6.88301 | 13.78624 | 8837 ft | 154 kts | 151° |
| 2026-04-18 12:54 | 6.87331 | 13.79089 | 8836 ft | 154 kts | 150° |
| 2026-04-18 12:54 | 6.86371 | 13.79555 | 8837 ft | 155 kts | 149° |
| 2026-04-18 12:55 | 6.85405 | 13.80044 | 8837 ft | 155 kts | 149° |
| 2026-04-18 12:55 | 6.84444 | 13.80541 | 8840 ft | 155 kts | 149° |
| 2026-04-18 12:55 | 6.83489 | 13.81021 | 8836 ft | 155 kts | 149° |
| 2026-04-18 12:55 | 6.82520 | 13.81503 | 8836 ft | 155 kts | 150° |
| 2026-04-18 12:56 | 6.81545 | 13.81970 | 8833 ft | 155 kts | 150° |
| 2026-04-18 12:56 | 6.80572 | 13.82440 | 8834 ft | 154 kts | 150° |
| 2026-04-18 12:56 | 6.79612 | 13.82906 | 8832 ft | 154 kts | 150° |
| 2026-04-18 12:56 | 6.78641 | 13.83375 | 8834 ft | 154 kts | 150° |
| 2026-04-18 12:57 | 6.77680 | 13.83833 | 8832 ft | 154 kts | 150° |
| 2026-04-18 12:57 | 6.76704 | 13.84296 | 8831 ft | 154 kts | 150° |
| 2026-04-18 12:57 | 6.75727 | 13.84756 | 8830 ft | 154 kts | 150° |
| 2026-04-18 12:57 | 6.74762 | 13.85211 | 8831 ft | 154 kts | 150° |
| 2026-04-18 12:58 | 6.73791 | 13.85668 | 8831 ft | 153 kts | 151° |
| 2026-04-18 12:58 | 6.72823 | 13.86120 | 8831 ft | 153 kts | 151° |
| 2026-04-18 12:58 | 6.71868 | 13.86568 | 8829 ft | 153 kts | 151° |
| 2026-04-18 12:58 | 6.70897 | 13.87024 | 8830 ft | 154 kts | 150° |
| 2026-04-18 12:59 | 6.69932 | 13.87475 | 8828 ft | 154 kts | 151° |
| 2026-04-18 12:59 | 6.68956 | 13.87927 | 8829 ft | 154 kts | 151° |
| 2026-04-18 12:59 | 6.67981 | 13.88380 | 8826 ft | 154 kts | 151° |
| 2026-04-18 12:59 | 6.67009 | 13.88833 | 8828 ft | 153 kts | 150° |
| 2026-04-18 13:00 | 6.66055 | 13.89287 | 8825 ft | 154 kts | 150° |
| 2026-04-18 13:00 | 6.65089 | 13.89752 | 8824 ft | 154 kts | 150° |
| 2026-04-18 13:00 | 6.64122 | 13.90212 | 8823 ft | 153 kts | 150° |
| 2026-04-18 13:00 | 6.63156 | 13.90674 | 8826 ft | 153 kts | 150° |
| 2026-04-18 13:01 | 6.62190 | 13.91135 | 8824 ft | 153 kts | 150° |
| 2026-04-18 13:01 | 6.61239 | 13.91598 | 8824 ft | 154 kts | 150° |
| 2026-04-18 13:01 | 6.60272 | 13.92064 | 8823 ft | 153 kts | 150° |
| 2026-04-18 13:01 | 6.59306 | 13.92530 | 8817 ft | 153 kts | 150° |
| 2026-04-18 13:02 | 6.58355 | 13.92987 | 8820 ft | 153 kts | 150° |
| 2026-04-18 13:02 | 6.57391 | 13.93448 | 8820 ft | 153 kts | 150° |
| 2026-04-18 13:02 | 6.56426 | 13.93908 | 8820 ft | 153 kts | 150° |
| 2026-04-18 13:02 | 6.55467 | 13.94367 | 8825 ft | 153 kts | 150° |
| 2026-04-18 13:03 | 6.54507 | 13.94824 | 8819 ft | 153 kts | 150° |
| 2026-04-18 13:03 | 6.52588 | 13.95742 | 8823 ft | 153 kts | 150° |
| 2026-04-18 13:03 | 6.51633 | 13.96195 | 8822 ft | 152 kts | 150° |
| 2026-04-18 13:04 | 6.50676 | 13.96647 | 8822 ft | 151 kts | 150° |
| 2026-04-18 13:04 | 6.49722 | 13.97096 | 8822 ft | 151 kts | 150° |
| 2026-04-18 13:04 | 6.48777 | 13.97535 | 8819 ft | 151 kts | 150° |
| 2026-04-18 13:04 | 6.47822 | 13.97978 | 8823 ft | 151 kts | 150° |
| 2026-04-18 13:05 | 6.46869 | 13.98433 | 8824 ft | 152 kts | 149° |
| 2026-04-18 13:05 | 6.45921 | 13.98893 | 8824 ft | 153 kts | 149° |
| 2026-04-18 13:05 | 6.44961 | 13.99357 | 8826 ft | 153 kts | 150° |
| 2026-04-18 13:05 | 6.43998 | 13.99819 | 8821 ft | 153 kts | 150° |
| 2026-04-18 13:06 | 6.43033 | 14.00280 | 8821 ft | 153 kts | 150° |
| 2026-04-18 13:06 | 6.42063 | 14.00743 | 8824 ft | 153 kts | 150° |
| 2026-04-18 13:06 | 6.41109 | 14.01197 | 8824 ft | 153 kts | 150° |
| 2026-04-18 13:06 | 6.40143 | 14.01651 | 8826 ft | 153 kts | 150° |
| 2026-04-18 13:07 | 6.39177 | 14.02105 | 8822 ft | 153 kts | 150° |
| 2026-04-18 13:07 | 6.38210 | 14.02560 | 8824 ft | 153 kts | 150° |
| 2026-04-18 13:07 | 6.37249 | 14.03014 | 8825 ft | 153 kts | 150° |
| 2026-04-18 13:07 | 6.36283 | 14.03473 | 8821 ft | 153 kts | 150° |
| 2026-04-18 13:08 | 6.35334 | 14.03932 | 8824 ft | 153 kts | 149° |
| 2026-04-18 13:08 | 6.34369 | 14.04399 | 8823 ft | 153 kts | 150° |
| 2026-04-18 13:08 | 6.33399 | 14.04862 | 8823 ft | 154 kts | 150° |
| 2026-04-18 13:08 | 6.32429 | 14.05324 | 8825 ft | 154 kts | 150° |
| 2026-04-18 13:09 | 6.31470 | 14.05784 | 8830 ft | 155 kts | 150° |
| 2026-04-18 13:09 | 6.30496 | 14.06251 | 8817 ft | 155 kts | 150° |
| 2026-04-18 13:09 | 6.29528 | 14.06716 | 8821 ft | 154 kts | 150° |
| 2026-04-18 13:09 | 6.28563 | 14.07174 | 8823 ft | 153 kts | 150° |
| 2026-04-18 13:10 | 6.27595 | 14.07633 | 8824 ft | 153 kts | 150° |
| 2026-04-18 13:10 | 6.26638 | 14.08087 | 8823 ft | 153 kts | 150° |
| 2026-04-18 13:10 | 6.25673 | 14.08544 | 8822 ft | 153 kts | 150° |
| 2026-04-18 13:10 | 6.24705 | 14.09001 | 8824 ft | 154 kts | 150° |
| 2026-04-18 13:11 | 6.23733 | 14.09460 | 8824 ft | 153 kts | 150° |
| 2026-04-18 13:11 | 6.22777 | 14.09913 | 8823 ft | 154 kts | 150° |
| 2026-04-18 13:11 | 6.21807 | 14.10373 | 8820 ft | 154 kts | 150° |
| 2026-04-18 13:11 | 6.20837 | 14.10834 | 8819 ft | 153 kts | 150° |
| 2026-04-18 13:12 | 6.19867 | 14.11297 | 8821 ft | 154 kts | 150° |
| 2026-04-18 13:12 | 6.18909 | 14.11749 | 8819 ft | 154 kts | 150° |
| 2026-04-18 13:12 | 6.17935 | 14.12204 | 8822 ft | 154 kts | 150° |
| 2026-04-18 13:12 | 6.16966 | 14.12658 | 8822 ft | 154 kts | 150° |
| 2026-04-18 13:13 | 6.16000 | 14.13111 | 8822 ft | 153 kts | 150° |
| 2026-04-18 13:13 | 6.15047 | 14.13561 | 8825 ft | 153 kts | 150° |
| 2026-04-18 13:13 | 6.14081 | 14.14019 | 8822 ft | 153 kts | 150° |
| 2026-04-18 13:13 | 6.13116 | 14.14480 | 8821 ft | 153 kts | 150° |
| 2026-04-18 13:14 | 6.12152 | 14.14946 | 8819 ft | 153 kts | 150° |
| 2026-04-18 13:14 | 6.11205 | 14.15400 | 8824 ft | 153 kts | 150° |
| 2026-04-18 13:14 | 6.10239 | 14.15863 | 8821 ft | 153 kts | 150° |
| 2026-04-18 13:14 | 6.09272 | 14.16325 | 8825 ft | 153 kts | 150° |
| 2026-04-18 13:15 | 6.08305 | 14.16783 | 8823 ft | 153 kts | 150° |
| 2026-04-18 13:15 | 6.07353 | 14.17235 | 8824 ft | 152 kts | 150° |
| 2026-04-18 13:15 | 6.06394 | 14.17690 | 8819 ft | 152 kts | 150° |
| 2026-04-18 13:15 | 6.05434 | 14.18149 | 8822 ft | 153 kts | 150° |
| 2026-04-18 13:16 | 6.04481 | 14.18602 | 8822 ft | 153 kts | 150° |
| 2026-04-18 13:16 | 6.03519 | 14.19061 | 8820 ft | 153 kts | 150° |
| 2026-04-18 13:16 | 6.02555 | 14.19521 | 8822 ft | 153 kts | 150° |
| 2026-04-18 13:16 | 6.01600 | 14.19975 | 8824 ft | 153 kts | 150° |
| 2026-04-18 13:17 | 6.00637 | 14.20431 | 8822 ft | 153 kts | 150° |
| 2026-04-18 13:17 | 5.99670 | 14.20884 | 8824 ft | 153 kts | 150° |
| 2026-04-18 13:17 | 5.99030 | 14.21185 | 8822 ft | 153 kts | 150° |
| 2026-04-18 13:17 | 5.97745 | 14.21792 | 8822 ft | 153 kts | 150° |
| 2026-04-18 13:18 | 5.97101 | 14.22094 | 8820 ft | 153 kts | 150° |
| 2026-04-18 13:18 | 5.96133 | 14.22552 | 8821 ft | 154 kts | 150° |
| 2026-04-18 13:18 | 5.94853 | 14.23168 | 8821 ft | 154 kts | 150° |
| 2026-04-18 13:18 | 5.93889 | 14.23631 | 8820 ft | 154 kts | 150° |
| 2026-04-18 13:19 | 5.93251 | 14.23938 | 8820 ft | 153 kts | 150° |
| 2026-04-18 13:19 | 5.92286 | 14.24398 | 8821 ft | 153 kts | 150° |
| 2026-04-18 13:19 | 5.91319 | 14.24861 | 8818 ft | 154 kts | 150° |
| 2026-04-18 13:19 | 5.90032 | 14.25472 | 8819 ft | 154 kts | 150° |
| 2026-04-18 13:20 | 5.89377 | 14.25779 | 8818 ft | 153 kts | 150° |
| 2026-04-18 13:20 | 5.88414 | 14.26228 | 8816 ft | 154 kts | 150° |
| 2026-04-18 13:20 | 5.87446 | 14.26684 | 8819 ft | 153 kts | 150° |
| 2026-04-18 13:20 | 5.86492 | 14.27133 | 8819 ft | 152 kts | 150° |
| 2026-04-18 13:21 | 5.85528 | 14.27589 | 8817 ft | 153 kts | 150° |
| 2026-04-18 13:21 | 5.84566 | 14.28045 | 8818 ft | 153 kts | 150° |
| 2026-04-18 13:21 | 5.83613 | 14.28497 | 8819 ft | 153 kts | 150° |
| 2026-04-18 13:21 | 5.82646 | 14.28960 | 8818 ft | 153 kts | 150° |
| 2026-04-18 13:22 | 5.81692 | 14.29413 | 8816 ft | 152 kts | 150° |
| 2026-04-18 13:22 | 5.80726 | 14.29866 | 8818 ft | 152 kts | 150° |
| 2026-04-18 13:22 | 5.79773 | 14.30316 | 8818 ft | 151 kts | 150° |
| 2026-04-18 13:22 | 5.78832 | 14.30765 | 8819 ft | 151 kts | 150° |
| 2026-04-18 13:23 | 5.77869 | 14.31218 | 8817 ft | 152 kts | 150° |
| 2026-04-18 13:23 | 5.76919 | 14.31668 | 8819 ft | 153 kts | 150° |
| 2026-04-18 13:23 | 5.75955 | 14.32125 | 8821 ft | 153 kts | 150° |
| 2026-04-18 13:23 | 5.74993 | 14.32579 | 8820 ft | 152 kts | 150° |
| 2026-04-18 13:24 | 5.74035 | 14.33034 | 8820 ft | 152 kts | 150° |
| 2026-04-18 13:24 | 5.73076 | 14.33492 | 8821 ft | 152 kts | 150° |
| 2026-04-18 13:24 | 5.72127 | 14.33949 | 8818 ft | 153 kts | 150° |
| 2026-04-18 13:24 | 5.71161 | 14.34410 | 8819 ft | 153 kts | 150° |
| 2026-04-18 13:25 | 5.70209 | 14.34866 | 8818 ft | 153 kts | 149° |
| 2026-04-18 13:25 | 5.69245 | 14.35328 | 8818 ft | 153 kts | 150° |
| 2026-04-18 13:25 | 5.68278 | 14.35784 | 8815 ft | 152 kts | 150° |
| 2026-04-18 13:25 | 5.67331 | 14.36227 | 8817 ft | 151 kts | 150° |
| 2026-04-18 13:26 | 5.66373 | 14.36676 | 8818 ft | 151 kts | 150° |
| 2026-04-18 13:26 | 5.65416 | 14.37126 | 8819 ft | 152 kts | 150° |
| 2026-04-18 13:26 | 5.64468 | 14.37574 | 8815 ft | 151 kts | 150° |
| 2026-04-18 13:26 | 5.63513 | 14.38028 | 8814 ft | 152 kts | 150° |
| 2026-04-18 13:27 | 5.62556 | 14.38486 | 8816 ft | 152 kts | 150° |
| 2026-04-18 13:27 | 5.61605 | 14.38935 | 8816 ft | 152 kts | 150° |
| 2026-04-18 13:27 | 5.60641 | 14.39391 | 8818 ft | 152 kts | 150° |
| 2026-04-18 13:27 | 5.59680 | 14.39849 | 8818 ft | 153 kts | 149° |
| 2026-04-18 13:28 | 5.58723 | 14.40301 | 8818 ft | 153 kts | 150° |
| 2026-04-18 13:28 | 5.57751 | 14.40748 | 8818 ft | 153 kts | 151° |
| 2026-04-18 13:28 | 5.56784 | 14.41186 | 8817 ft | 151 kts | 150° |
| 2026-04-18 13:28 | 5.55842 | 14.41633 | 8815 ft | 151 kts | 149° |
| 2026-04-18 13:29 | 5.54893 | 14.42094 | 8818 ft | 151 kts | 149° |
| 2026-04-18 13:29 | 5.53955 | 14.42552 | 8819 ft | 151 kts | 149° |
| 2026-04-18 13:29 | 5.53009 | 14.43015 | 8817 ft | 151 kts | 149° |
| 2026-04-18 13:29 | 5.52060 | 14.43481 | 8816 ft | 151 kts | 149° |
| 2026-04-18 13:30 | 5.51119 | 14.43938 | 8816 ft | 151 kts | 149° |
| 2026-04-18 13:30 | 5.50166 | 14.44397 | 8815 ft | 150 kts | 149° |
| 2026-04-18 13:30 | 5.49218 | 14.44847 | 8814 ft | 150 kts | 149° |
| 2026-04-18 13:30 | 5.48273 | 14.45295 | 8817 ft | 150 kts | 150° |
| 2026-04-18 13:31 | 5.47329 | 14.45738 | 8815 ft | 150 kts | 150° |
| 2026-04-18 13:31 | 5.46392 | 14.46179 | 8815 ft | 151 kts | 150° |
| 2026-04-18 13:31 | 5.45439 | 14.46629 | 8818 ft | 151 kts | 150° |
| 2026-04-18 13:31 | 5.44478 | 14.47080 | 8818 ft | 152 kts | 150° |
| 2026-04-18 13:32 | 5.43524 | 14.47525 | 8817 ft | 152 kts | 150° |
| 2026-04-18 13:32 | 5.42557 | 14.47971 | 8815 ft | 152 kts | 150° |
| 2026-04-18 13:32 | 5.41599 | 14.48412 | 8815 ft | 152 kts | 150° |
| 2026-04-18 13:32 | 5.40639 | 14.48856 | 8814 ft | 152 kts | 150° |
| 2026-04-18 13:33 | 5.39680 | 14.49306 | 8817 ft | 152 kts | 150° |
| 2026-04-18 13:33 | 5.38722 | 14.49756 | 8817 ft | 151 kts | 150° |
| 2026-04-18 13:33 | 5.37767 | 14.50205 | 8812 ft | 151 kts | 150° |
| 2026-04-18 13:33 | 5.36813 | 14.50657 | 8814 ft | 152 kts | 149° |
| 2026-04-18 13:34 | 5.35868 | 14.51110 | 8813 ft | 152 kts | 149° |
| 2026-04-18 13:34 | 5.34904 | 14.51568 | 8813 ft | 152 kts | 149° |
| 2026-04-18 13:34 | 5.33955 | 14.52027 | 8816 ft | 153 kts | 149° |
| 2026-04-18 13:34 | 5.32990 | 14.52488 | 8810 ft | 153 kts | 150° |
| 2026-04-18 13:35 | 5.32025 | 14.52950 | 8814 ft | 153 kts | 149° |
| 2026-04-18 13:35 | 5.31065 | 14.53414 | 8811 ft | 153 kts | 149° |
| 2026-04-18 13:35 | 5.30116 | 14.53870 | 8814 ft | 152 kts | 149° |
| 2026-04-18 13:35 | 5.29156 | 14.54334 | 8809 ft | 152 kts | 149° |
| 2026-04-18 13:36 | 5.28196 | 14.54792 | 8808 ft | 152 kts | 149° |
| 2026-04-18 13:36 | 5.27248 | 14.55247 | 8806 ft | 152 kts | 149° |
| 2026-04-18 13:36 | 5.26293 | 14.55701 | 8806 ft | 152 kts | 150° |
| 2026-04-18 13:36 | 5.25335 | 14.56154 | 8805 ft | 152 kts | 150° |
| 2026-04-18 13:37 | 5.24387 | 14.56597 | 8808 ft | 152 kts | 150° |
| 2026-04-18 13:37 | 5.23425 | 14.57041 | 8807 ft | 152 kts | 150° |
| 2026-04-18 13:37 | 5.22465 | 14.57492 | 8810 ft | 152 kts | 150° |
| 2026-04-18 13:37 | 5.21510 | 14.57950 | 8809 ft | 152 kts | 150° |
| 2026-04-18 13:38 | 5.20550 | 14.58400 | 8808 ft | 152 kts | 150° |
| 2026-04-18 13:38 | 5.19587 | 14.58849 | 8809 ft | 153 kts | 150° |
| 2026-04-18 13:38 | 5.18636 | 14.59300 | 8808 ft | 152 kts | 150° |
| 2026-04-18 13:38 | 5.17680 | 14.59751 | 8806 ft | 151 kts | 150° |
| 2026-04-18 13:39 | 5.16738 | 14.60191 | 8807 ft | 151 kts | 150° |
| 2026-04-18 13:39 | 5.15780 | 14.60638 | 8807 ft | 152 kts | 150° |
| 2026-04-18 13:39 | 5.14819 | 14.61086 | 8804 ft | 152 kts | 150° |
| 2026-04-18 13:39 | 5.13858 | 14.61538 | 8803 ft | 152 kts | 150° |
| 2026-04-18 13:40 | 5.12906 | 14.61990 | 8804 ft | 152 kts | 150° |
| 2026-04-18 13:40 | 5.11949 | 14.62448 | 8807 ft | 152 kts | 150° |
| 2026-04-18 13:40 | 5.10993 | 14.62904 | 8804 ft | 152 kts | 150° |
| 2026-04-18 13:40 | 5.10034 | 14.63364 | 8805 ft | 153 kts | 150° |
| 2026-04-18 13:41 | 5.09080 | 14.63820 | 8807 ft | 153 kts | 150° |
| 2026-04-18 13:41 | 5.08111 | 14.64280 | 8804 ft | 153 kts | 150° |
| 2026-04-18 13:41 | 5.07146 | 14.64736 | 8806 ft | 153 kts | 150° |
| 2026-04-18 13:41 | 5.06195 | 14.65189 | 8801 ft | 153 kts | 150° |
| 2026-04-18 13:42 | 5.05232 | 14.65645 | 8801 ft | 153 kts | 150° |
| 2026-04-18 13:42 | 5.04267 | 14.66100 | 8800 ft | 153 kts | 150° |
| 2026-04-18 13:42 | 5.03315 | 14.66545 | 8804 ft | 152 kts | 150° |
| 2026-04-18 13:42 | 5.02355 | 14.66991 | 8803 ft | 151 kts | 150° |
| 2026-04-18 13:43 | 5.01403 | 14.67437 | 8802 ft | 151 kts | 150° |
| 2026-04-18 13:43 | 5.00450 | 14.67885 | 8801 ft | 151 kts | 150° |
| 2026-04-18 13:43 | 4.99505 | 14.68338 | 8802 ft | 151 kts | 150° |
| 2026-04-18 13:43 | 4.98555 | 14.68791 | 8802 ft | 151 kts | 150° |
| 2026-04-18 13:44 | 4.97610 | 14.69235 | 8801 ft | 151 kts | 150° |
| 2026-04-18 13:44 | 4.96654 | 14.69687 | 8804 ft | 150 kts | 150° |
| 2026-04-18 13:44 | 4.95714 | 14.70130 | 8802 ft | 150 kts | 150° |
| 2026-04-18 13:44 | 4.94766 | 14.70575 | 8801 ft | 150 kts | 149° |
| 2026-04-18 13:45 | 4.93822 | 14.71025 | 8799 ft | 150 kts | 149° |
| 2026-04-18 13:45 | 4.92885 | 14.71477 | 8802 ft | 149 kts | 149° |
| 2026-04-18 13:45 | 4.91943 | 14.71925 | 8800 ft | 150 kts | 150° |
| 2026-04-18 13:45 | 4.91009 | 14.72366 | 8802 ft | 150 kts | 150° |
| 2026-04-18 13:46 | 4.90070 | 14.72813 | 8799 ft | 150 kts | 150° |
| 2026-04-18 13:46 | 4.89128 | 14.73263 | 8802 ft | 149 kts | 150° |
| 2026-04-18 13:46 | 4.88197 | 14.73707 | 8802 ft | 150 kts | 150° |
| 2026-04-18 13:46 | 4.87251 | 14.74155 | 8801 ft | 151 kts | 150° |
| 2026-04-18 13:47 | 4.86297 | 14.74606 | 8803 ft | 151 kts | 150° |
| 2026-04-18 13:47 | 4.85336 | 14.75057 | 8801 ft | 151 kts | 150° |
| 2026-04-18 13:47 | 4.84389 | 14.75497 | 8801 ft | 151 kts | 150° |
| 2026-04-18 13:47 | 4.83439 | 14.75946 | 8797 ft | 149 kts | 150° |
| 2026-04-18 13:48 | 4.82497 | 14.76391 | 8797 ft | 150 kts | 150° |
| 2026-04-18 13:48 | 4.81565 | 14.76830 | 8797 ft | 150 kts | 150° |
| 2026-04-18 13:48 | 4.80623 | 14.77277 | 8797 ft | 149 kts | 150° |
| 2026-04-18 13:48 | 4.79681 | 14.77721 | 8799 ft | 150 kts | 150° |
| 2026-04-18 13:49 | 4.78732 | 14.78169 | 8797 ft | 150 kts | 150° |
| 2026-04-18 13:49 | 4.77786 | 14.78614 | 8799 ft | 150 kts | 150° |
| 2026-04-18 13:49 | 4.76846 | 14.79055 | 8797 ft | 150 kts | 150° |
| 2026-04-18 13:49 | 4.75894 | 14.79499 | 8798 ft | 151 kts | 150° |
| 2026-04-18 13:50 | 4.74953 | 14.79939 | 8800 ft | 150 kts | 150° |
| 2026-04-18 13:50 | 4.74002 | 14.80383 | 8798 ft | 150 kts | 150° |
| 2026-04-18 13:50 | 4.73054 | 14.80832 | 8799 ft | 150 kts | 149° |
| 2026-04-18 13:50 | 4.72109 | 14.81281 | 8799 ft | 150 kts | 150° |
| 2026-04-18 13:51 | 4.71172 | 14.81726 | 8799 ft | 150 kts | 150° |
| 2026-04-18 13:51 | 4.70225 | 14.82178 | 8800 ft | 150 kts | 149° |
| 2026-04-18 13:51 | 4.69280 | 14.82631 | 8795 ft | 150 kts | 149° |
| 2026-04-18 13:51 | 4.68340 | 14.83077 | 8796 ft | 149 kts | 149° |
| 2026-04-18 13:52 | 4.67398 | 14.83519 | 8799 ft | 150 kts | 149° |
| 2026-04-18 13:52 | 4.66450 | 14.83961 | 8799 ft | 150 kts | 149° |
| 2026-04-18 13:52 | 4.65514 | 14.84398 | 8797 ft | 150 kts | 149° |
| 2026-04-18 13:52 | 4.64565 | 14.84847 | 8800 ft | 150 kts | 149° |
| 2026-04-18 13:53 | 4.63629 | 14.85297 | 8799 ft | 150 kts | 149° |
| 2026-04-18 13:53 | 4.62687 | 14.85753 | 8800 ft | 150 kts | 149° |
| 2026-04-18 13:53 | 4.61752 | 14.86203 | 8800 ft | 151 kts | 149° |
| 2026-04-18 13:53 | 4.60804 | 14.86660 | 8799 ft | 151 kts | 149° |
| 2026-04-18 13:54 | 4.59853 | 14.87112 | 8799 ft | 151 kts | 150° |
| 2026-04-18 13:54 | 4.58902 | 14.87559 | 8798 ft | 151 kts | 150° |
| 2026-04-18 13:54 | 4.57949 | 14.88006 | 8796 ft | 151 kts | 150° |
| 2026-04-18 13:54 | 4.57005 | 14.88449 | 8796 ft | 151 kts | 150° |
| 2026-04-18 13:55 | 4.56053 | 14.88896 | 8799 ft | 151 kts | 150° |
| 2026-04-18 13:55 | 4.55098 | 14.89344 | 8795 ft | 151 kts | 150° |
| 2026-04-18 13:55 | 4.54157 | 14.89788 | 8795 ft | 151 kts | 150° |
| 2026-04-18 13:55 | 4.53200 | 14.90237 | 8795 ft | 151 kts | 150° |
| 2026-04-18 13:56 | 4.52247 | 14.90683 | 8795 ft | 151 kts | 150° |
| 2026-04-18 13:56 | 4.51305 | 14.91125 | 8799 ft | 151 kts | 150° |
| 2026-04-18 13:56 | 4.50353 | 14.91572 | 8794 ft | 151 kts | 150° |
| 2026-04-18 13:56 | 4.49398 | 14.92019 | 8796 ft | 151 kts | 150° |
| 2026-04-18 13:57 | 4.48447 | 14.92464 | 8794 ft | 151 kts | 150° |
| 2026-04-18 13:57 | 4.47494 | 14.92912 | 8797 ft | 151 kts | 150° |
| 2026-04-18 13:57 | 4.46555 | 14.93353 | 8796 ft | 151 kts | 150° |
| 2026-04-18 13:57 | 4.45604 | 14.93798 | 8796 ft | 151 kts | 149° |
| 2026-04-18 13:58 | 4.44655 | 14.94248 | 8796 ft | 151 kts | 149° |
| 2026-04-18 13:58 | 4.43705 | 14.94699 | 8796 ft | 151 kts | 149° |
| 2026-04-18 13:58 | 4.42760 | 14.95150 | 8798 ft | 152 kts | 149° |
| 2026-04-18 13:58 | 4.41802 | 14.95606 | 8796 ft | 152 kts | 149° |
| 2026-04-18 13:59 | 4.40842 | 14.96064 | 8795 ft | 152 kts | 149° |
| 2026-04-18 13:59 | 4.39885 | 14.96523 | 8795 ft | 152 kts | 149° |
| 2026-04-18 13:59 | 4.38937 | 14.96979 | 8797 ft | 152 kts | 149° |
| 2026-04-18 13:59 | 4.37983 | 14.97439 | 8795 ft | 151 kts | 149° |
| 2026-04-18 14:00 | 4.37034 | 14.97893 | 8802 ft | 151 kts | 150° |
| 2026-04-18 14:00 | 4.36098 | 14.98336 | 8796 ft | 150 kts | 150° |
| 2026-04-18 14:00 | 4.35148 | 14.98779 | 8796 ft | 150 kts | 150° |
| 2026-04-18 14:00 | 4.34198 | 14.99224 | 8795 ft | 151 kts | 150° |
| 2026-04-18 14:01 | 4.33240 | 14.99668 | 8800 ft | 151 kts | 150° |
| 2026-04-18 14:01 | 4.32280 | 15.00109 | 8798 ft | 151 kts | 150° |
| 2026-04-18 14:01 | 4.31323 | 15.00555 | 8794 ft | 152 kts | 150° |
| 2026-04-18 14:01 | 4.30380 | 15.00998 | 8796 ft | 151 kts | 150° |
| 2026-04-18 14:02 | 4.29426 | 15.01448 | 8796 ft | 151 kts | 150° |
| 2026-04-18 14:02 | 4.28475 | 15.01895 | 8801 ft | 151 kts | 150° |
| 2026-04-18 14:02 | 4.27519 | 15.02342 | 8795 ft | 151 kts | 150° |
| 2026-04-18 14:02 | 4.26574 | 15.02786 | 8797 ft | 151 kts | 150° |
| 2026-04-18 14:03 | 4.25632 | 15.03227 | 8802 ft | 150 kts | 150° |
| 2026-04-18 14:03 | 4.24679 | 15.03674 | 8804 ft | 150 kts | 150° |
| 2026-04-18 14:03 | 4.23730 | 15.04123 | 8797 ft | 150 kts | 150° |
| 2026-04-18 14:03 | 4.22794 | 15.04567 | 8804 ft | 150 kts | 149° |
| 2026-04-18 14:04 | 4.21845 | 15.05015 | 8801 ft | 150 kts | 150° |
| 2026-04-18 14:04 | 4.20909 | 15.05454 | 8798 ft | 150 kts | 149° |
| 2026-04-18 14:04 | 4.19963 | 15.05906 | 8799 ft | 150 kts | 149° |
| 2026-04-18 14:04 | 4.19014 | 15.06356 | 8804 ft | 150 kts | 149° |
| 2026-04-18 14:05 | 4.18068 | 15.06804 | 8806 ft | 150 kts | 149° |
| 2026-04-18 14:05 | 4.17133 | 15.07248 | 8804 ft | 150 kts | 149° |
| 2026-04-18 14:05 | 4.16181 | 15.07702 | 8808 ft | 151 kts | 149° |
| 2026-04-18 14:05 | 4.15227 | 15.08160 | 8807 ft | 152 kts | 149° |
| 2026-04-18 14:06 | 4.14288 | 15.08612 | 8804 ft | 151 kts | 149° |
| 2026-04-18 14:06 | 4.13340 | 15.09065 | 8803 ft | 151 kts | 149° |
| 2026-04-18 14:06 | 4.12388 | 15.09516 | 8804 ft | 151 kts | 149° |
| 2026-04-18 14:06 | 4.11449 | 15.09959 | 8802 ft | 151 kts | 149° |
| 2026-04-18 14:07 | 4.10805 | 15.10262 | 8805 ft | 150 kts | 150° |
| 2026-04-18 14:07 | 4.09868 | 15.10699 | 8807 ft | 150 kts | 150° |
| 2026-04-18 14:07 | 4.08913 | 15.11143 | 8802 ft | 150 kts | 150° |
| 2026-04-18 14:07 | 4.07666 | 15.11744 | 8803 ft | 150 kts | 146° |
| 2026-04-18 14:08 | 4.06633 | 15.13048 | 8810 ft | 146 kts | 107° |
| 2026-04-18 14:08 | 4.06301 | 15.14008 | 8801 ft | 145 kts | 107° |
| 2026-04-18 14:08 | 4.05982 | 15.14952 | 8804 ft | 144 kts | 106° |
| 2026-04-18 14:09 | 4.05664 | 15.15904 | 8805 ft | 143 kts | 106° |
| 2026-04-18 14:09 | 4.05348 | 15.16854 | 8803 ft | 143 kts | 106° |
| 2026-04-18 14:09 | 4.05036 | 15.17802 | 8803 ft | 143 kts | 106° |
| 2026-04-18 14:09 | 4.04726 | 15.18735 | 8809 ft | 143 kts | 106° |
| 2026-04-18 14:10 | 4.04412 | 15.19682 | 8808 ft | 142 kts | 106° |
| 2026-04-18 14:10 | 4.04097 | 15.20624 | 8808 ft | 142 kts | 106° |
| 2026-04-18 14:10 | 4.03788 | 15.21551 | 8805 ft | 142 kts | 106° |
| 2026-04-18 14:10 | 4.03478 | 15.22491 | 8803 ft | 141 kts | 106° |
| 2026-04-18 14:11 | 4.03169 | 15.23431 | 8806 ft | 142 kts | 106° |
| 2026-04-18 14:11 | 4.02859 | 15.24375 | 8803 ft | 142 kts | 106° |
| 2026-04-18 14:11 | 4.02553 | 15.25309 | 8805 ft | 142 kts | 106° |
| 2026-04-18 14:11 | 4.02242 | 15.26247 | 8809 ft | 142 kts | 106° |
| 2026-04-18 14:12 | 4.01935 | 15.27174 | 8805 ft | 141 kts | 106° |
| 2026-04-18 14:12 | 4.01629 | 15.28111 | 8808 ft | 141 kts | 106° |
| 2026-04-18 14:12 | 4.01324 | 15.29048 | 8810 ft | 141 kts | 106° |
| 2026-04-18 14:12 | 4.01021 | 15.29979 | 8808 ft | 142 kts | 106° |
| 2026-04-18 14:13 | 4.00716 | 15.30920 | 8811 ft | 142 kts | 106° |
| 2026-04-18 14:13 | 4.00406 | 15.31859 | 8809 ft | 142 kts | 106° |
| 2026-04-18 14:13 | 4.00095 | 15.32800 | 8809 ft | 141 kts | 106° |
| 2026-04-18 14:13 | 3.99789 | 15.33728 | 8811 ft | 141 kts | 106° |
| 2026-04-18 14:14 | 3.99481 | 15.34667 | 8808 ft | 141 kts | 106° |
| 2026-04-18 14:14 | 3.99176 | 15.35603 | 8810 ft | 141 kts | 106° |
| 2026-04-18 14:14 | 3.98870 | 15.36546 | 8815 ft | 142 kts | 106° |
| 2026-04-18 14:14 | 3.98570 | 15.37474 | 8812 ft | 142 kts | 106° |
| 2026-04-18 14:15 | 3.98268 | 15.38414 | 8812 ft | 142 kts | 106° |
| 2026-04-18 14:15 | 3.97969 | 15.39357 | 8813 ft | 142 kts | 103° |
| 2026-04-18 14:15 | 3.98068 | 15.40316 | 8805 ft | 142 kts | 62° |
| 2026-04-18 14:15 | 3.98734 | 15.41061 | 8812 ft | 145 kts | 49° |
| 2026-04-18 14:16 | 3.99387 | 15.41828 | 8812 ft | 144 kts | 56° |
| 2026-04-18 14:16 | 3.99963 | 15.42636 | 8809 ft | 143 kts | 59° |
| 2026-04-18 14:16 | 4.00512 | 15.43473 | 8809 ft | 143 kts | 60° |
| 2026-04-18 14:16 | 4.01044 | 15.44319 | 8811 ft | 143 kts | 61° |
| 2026-04-18 14:17 | 4.01561 | 15.45157 | 8809 ft | 143 kts | 61° |
| 2026-04-18 14:17 | 4.02080 | 15.46004 | 8809 ft | 142 kts | 61° |
| 2026-04-18 14:17 | 4.03125 | 15.47690 | 8806 ft | 142 kts | 61° |
| 2026-04-18 14:18 | 4.04174 | 15.49350 | 8809 ft | 141 kts | 60° |
| 2026-04-18 14:18 | 4.04705 | 15.50189 | 8811 ft | 142 kts | 60° |
| 2026-04-18 14:19 | 4.05763 | 15.51850 | 8808 ft | 142 kts | 60° |
| 2026-04-18 14:19 | 4.06297 | 15.52689 | 8809 ft | 143 kts | 60° |
| 2026-04-18 14:19 | 4.07365 | 15.54359 | 8808 ft | 143 kts | 60° |
| 2026-04-18 14:20 | 4.07905 | 15.55198 | 8806 ft | 143 kts | 60° |
| 2026-04-18 14:20 | 4.08445 | 15.56037 | 8806 ft | 142 kts | 60° |
| 2026-04-18 14:20 | 4.08979 | 15.56862 | 8808 ft | 143 kts | 60° |
| 2026-04-18 14:20 | 4.09523 | 15.57700 | 8805 ft | 142 kts | 60° |
| 2026-04-18 14:21 | 4.10061 | 15.58530 | 8806 ft | 142 kts | 60° |
| 2026-04-18 14:21 | 4.10601 | 15.59364 | 8807 ft | 143 kts | 60° |
| 2026-04-18 14:21 | 4.11135 | 15.60190 | 8803 ft | 143 kts | 60° |
| 2026-04-18 14:22 | 4.12216 | 15.61857 | 8805 ft | 142 kts | 60° |
| 2026-04-18 14:22 | 4.12748 | 15.62679 | 8805 ft | 143 kts | 60° |
| 2026-04-18 14:22 | 4.13826 | 15.64338 | 8805 ft | 141 kts | 60° |
| 2026-04-18 14:23 | 4.14361 | 15.65166 | 8803 ft | 141 kts | 60° |
| 2026-04-18 14:23 | 4.15431 | 15.66818 | 8806 ft | 142 kts | 60° |
| 2026-04-18 14:23 | 4.15969 | 15.67648 | 8789 ft | 141 kts | 60° |
| 2026-04-18 14:24 | 4.17049 | 15.69313 | 8543 ft | 143 kts | 60° |
| 2026-04-18 14:24 | 4.17591 | 15.70147 | 8471 ft | 142 kts | 60° |
| 2026-04-18 14:24 | 4.18135 | 15.70987 | 8344 ft | 144 kts | 60° |
| 2026-04-18 14:25 | 4.18671 | 15.71815 | 8279 ft | 142 kts | 60° |
| 2026-04-18 14:25 | 4.19211 | 15.72645 | 8171 ft | 143 kts | 60° |
| 2026-04-18 14:25 | 4.19753 | 15.73486 | 8075 ft | 142 kts | 59° |
| 2026-04-18 14:25 | 4.20301 | 15.74324 | 7938 ft | 146 kts | 59° |
| 2026-04-18 14:26 | 4.20855 | 15.75177 | 7831 ft | 146 kts | 59° |
| 2026-04-18 14:26 | 4.21407 | 15.76029 | 7760 ft | 145 kts | 59° |
| 2026-04-18 14:26 | 4.21971 | 15.76885 | 7623 ft | 148 kts | 57° |
| 2026-04-18 14:26 | 4.22517 | 15.77773 | 7410 ft | 153 kts | 62° |
| 2026-04-18 14:27 | 4.23127 | 15.78656 | 7233 ft | 153 kts | 55° |
| 2026-04-18 14:27 | 4.23736 | 15.79502 | 7110 ft | 151 kts | 57° |
| 2026-04-18 14:27 | 4.24356 | 15.80397 | 6835 ft | 159 kts | 57° |
| 2026-04-18 14:27 | 4.24972 | 15.81303 | 6749 ft | 153 kts | 59° |
| 2026-04-18 14:28 | 4.25557 | 15.82178 | 6579 ft | 154 kts | 58° |
| 2026-04-18 14:28 | 4.26135 | 15.83058 | 6550 ft | 143 kts | 57° |
| 2026-04-18 14:28 | 4.26676 | 15.83878 | 6434 ft | 145 kts | 59° |
| 2026-04-18 14:28 | 4.27384 | 15.84643 | 6126 ft | 158 kts | 31° |
| 2026-04-18 14:29 | 4.28488 | 15.84744 | 5866 ft | 166 kts | 345° |
| 2026-04-18 14:29 | 4.29372 | 15.84045 | 5764 ft | 162 kts | 304° |
| 2026-04-18 14:29 | 4.29646 | 15.82955 | 5555 ft | 167 kts | 267° |
| 2026-04-18 14:29 | 4.29467 | 15.81839 | 5530 ft | 157 kts | 259° |
| 2026-04-18 14:30 | 4.29274 | 15.80758 | 5359 ft | 161 kts | 258° |
| 2026-04-18 14:30 | 4.28786 | 15.79719 | 4971 ft | 173 kts | 231° |
| 2026-04-18 14:30 | 4.28105 | 15.78816 | 4822 ft | 168 kts | 232° |
| 2026-04-18 14:30 | 4.27390 | 15.77887 | 4545 ft | 170 kts | 230° |
| 2026-04-18 14:31 | 4.26642 | 15.76970 | 4352 ft | 166 kts | 230° |
| 2026-04-18 14:31 | 4.25946 | 15.76070 | 4155 ft | 165 kts | 233° |
| 2026-04-18 14:31 | 4.25110 | 15.75282 | 3818 ft | 171 kts | 206° |
| 2026-04-18 14:31 | 4.23913 | 15.75259 | 3329 ft | 183 kts | 157° |
| 2026-04-18 14:32 | 4.22870 | 15.75894 | 3418 ft | 158 kts | 150° |
| 2026-04-18 14:32 | 4.21978 | 15.76424 | 3409 ft | 145 kts | 151° |
| 2026-04-18 14:32 | 4.21141 | 15.76922 | 3409 ft | 134 kts | 150° |
| 2026-04-18 14:32 | 4.20365 | 15.77395 | 3404 ft | 127 kts | 149° |
| 2026-04-18 14:33 | 4.19625 | 15.77850 | 3399 ft | 122 kts | 150° |
| 2026-04-18 14:33 | 4.18917 | 15.78274 | 3392 ft | 112 kts | 150° |
| 2026-04-18 14:33 | 4.18299 | 15.78643 | 3349 ft | 101 kts | 149° |
| 2026-04-18 14:33 | 4.18042 | 15.79333 | 2992 ft | 119 kts | 75° |
| 2026-04-18 14:34 | 4.18627 | 15.79795 | 2824 ft | 112 kts | 356° |
| 2026-04-18 14:34 | 4.19340 | 15.79504 | 2642 ft | 105 kts | 329° |
| 2026-04-18 14:34 | 4.19935 | 15.79210 | 2434 ft | 92 kts | 338° |
| 2026-04-18 14:34 | 4.20515 | 15.79028 | 2205 ft | 85 kts | 338° |
| 2026-04-18 14:35 | 4.21070 | 15.78867 | 2030 ft | 81 kts | 345° |
| 2026-04-18 14:35 | 4.21600 | 15.78755 | 1939 ft | 70 kts | 346° |
| 2026-04-18 14:35 | 4.21984 | 15.78674 | 1934 ft | 45 kts | 348° |
| 2026-04-18 14:35 | 4.22223 | 15.78624 | 1931 ft | 28 kts | 347° |
| 2026-04-18 14:36 | 4.22370 | 15.78589 | 1933 ft | 20 kts | 347° |
| 2026-04-18 14:36 | 4.22524 | 15.78566 | 1931 ft | 24 kts | 8° |
| 2026-04-18 14:36 | 4.22633 | 15.78689 | 1927 ft | 27 kts | 73° |
| 2026-04-18 14:36 | 4.22630 | 15.78788 | 1924 ft | 1 kts | 170° |